Clermont, Georgia
Current Conditions -  °F | °C
As of 6:53 AM on Monday 24 Nov 2014 (Local Time) from KGVL Reporting Station
Clear Clear  
Wind Chill: 56°   Ceiling: Unl
Heat Index: 56°   Visibility: 7mi
Dew Point: 55°   Wind: 6mph
Humidity: 97%   Direction: 190°S
Pressure: 29.78"   Gusts: NA
Location:  34.48°N, 83.77°W
Report Text: KGVL 241153Z AUTO 19005KT 7SM CLR 13/13 A2978 RMK AO2 SLP080 70177 T01330128 10139 20117 51006
Loading
Personal Weather Stations






























Interactive Weather Map New forecast layout! Learn more

10-Day Weather Forecast

Advertisements
Track Severe Weather on mobile